Latest Weather Observations for The Monument

IDQ60801

Issued at 3:43 pm EST Thursday 28 January 2021 (issued every 10 minutes, with the page automatically refreshed every 10 minutes)

About weather observations | Map of weather stations | Latest weather observations for QLD | Other Formats
Station Details ID: 037034 Name: THE MONUMENT AIRPORT Lat: -21.81 Lon: 139.93 Height: 288.4 m
Data from the previous 72 hours. | See also: Recent months at The Monument
Date/Time
EST
Temp
°C
App
Temp
°C
Dew
Point
°C
Rel
Hum
%
Delta-T
°C
Wind Press
QNH
hPa
Press
MSL
hPa
Rain since
9am
mm
Dir  Spd
km/h
Gust
km/h
Spd
kts
Gust
kts
28/03:30pm 38.0 36.6 14.5 24 14.9 ESE 15 22 8 12 1002.7 1000.3 0.0
28/03:00pm 39.6 39.2 15.2 23 15.7 ENE 11 22 6 12 1003.0 1000.6 0.0
28/02:30pm 38.1 36.8 15.8 26 14.3 ENE 17 26 9 14 1003.5 1001.1 0.0
28/02:00pm 39.6 38.4 17.1 26 14.8 ENE 19 30 10 16 1003.9 1001.5 0.0
28/01:30pm 36.7 35.8 15.8 29 13.4 E 15 24 8 13 1004.3 1002.0 0.0
28/01:00pm 37.9 37.4 16.8 29 13.8 ENE 15 26 8 14 1004.6 1002.3 0.0
28/12:30pm 37.8 37.7 16.1 27 14.0 NNE 11 22 6 12 1005.1 1002.8 0.0
28/12:00pm 36.8 35.5 14.7 26 14.0 E 15 24 8 13 1005.1 1002.8 0.0
28/11:30am 36.1 36.3 17.7 33 12.1 ESE 13 20 7 11 1005.5 1003.2 0.0
28/11:00am 34.8 35.9 18.0 37 11.0 NE 9 22 5 12 1005.6 1003.3 0.0
28/10:30am 34.0 35.3 19.3 42 9.8 SE 11 20 6 11 1006.1 1003.7 0.0
28/10:00am 33.1 34.2 19.6 45 9.0 SSE 13 24 7 13 1006.4 1004.0 0.0
28/09:30am 31.4 32.6 20.0 50 7.6 SSW 13 19 7 10 1006.5 1004.1 0.0
28/09:00am 30.7 31.4 19.7 52 7.3 SSW 15 20 8 11 1006.4 1004.0 0.0
28/08:30am 29.8 30.6 19.8 55 6.6 SSW 15 19 8 10 1006.3 1003.9 0.0
28/08:00am 28.8 29.7 20.0 59 5.8 SSW 15 19 8 10 1006.2 1003.8 0.0
28/07:30am 28.0 29.6 20.0 61 5.3 SSW 11 13 6 7 1006.0 1003.6 0.0
28/07:00am 27.3 28.6 20.1 64 4.8 SW 13 17 7 9 1005.6 1003.3 0.0
28/06:30am 26.6 28.8 20.4 69 4.1 S 9 15 5 8 1005.3 1003.0 0.0
28/06:00am 26.3 28.6 19.9 68 4.2 SSE 7 9 4 5 1005.1 1002.8 0.0
28/05:30am 26.4 28.6 19.5 66 4.5 SSE 7 7 4 4 1005.0 1002.7 0.0
28/05:00am 27.1 29.4 19.4 62 5.0 S 6 9 3 5 1004.8 1002.5 0.0
28/04:30am 27.7 29.9 19.5 61 5.4 SW 7 9 4 5 1004.5 1002.2 0.0
28/04:00am 28.0 29.5 19.8 61 5.4 W 11 13 6 7 1004.5 1002.2 0.0
28/03:30am 27.8 29.3 19.8 61 5.3 SW 11 13 6 7 1004.5 1002.2 0.0
28/03:00am 28.4 30.0 19.9 60 5.6 SW 11 15 6 8 1004.7 1002.4 0.0
28/02:30am 29.1 31.0 19.7 57 6.2 SW 9 15 5 8 1004.8 1002.5 0.0
28/02:00am 29.8 31.6 19.5 54 6.8 WSW 9 13 5 7 1004.7 1002.4 0.0
28/01:30am 30.5 30.9 19.8 52 7.1 SW 17 22 9 12 1004.6 1002.3 0.0
28/01:00am 30.4 31.0 17.8 46 8.2 SSW 11 15 6 8 1004.5 1002.2 0.0
28/12:30am 30.8 32.4 17.8 45 8.4 WNW 6 7 3 4 1004.0 1001.6 0.0
28/12:00am 30.9 32.1 18.3 47 8.2 WNW 9 11 5 6 1004.2 1001.8 0.0
 
Date/Time
EST
Temp
°C
App
Temp
°C
Dew
Point
°C
Rel
Hum
%
Delta-T
°C
Wind Press
QNH
hPa
Press
MSL
hPa
Rain since
9am
mm
Dir  Spd
km/h
Gust
km/h
Spd
kts
Gust
kts
27/11:30pm 30.4 32.2 18.2 48 7.9 ENE 6 11 3 6 1005.1 1002.8 0.0
27/11:00pm 30.5 31.6 17.9 47 8.2 NNW 9 13 5 7 1004.7 1002.4 0.0
27/10:30pm 30.5 31.7 18.2 47 8.0 NNW 9 15 5 8 1004.9 1002.6 0.0
27/10:00pm 30.6 30.9 18.0 47 8.2 NNW 13 20 7 11 1004.5 1002.2 0.0
27/09:30pm 31.5 29.7 17.8 44 8.9 NNE 24 35 13 19 1004.3 1002.0 0.0
27/09:00pm 33.1 35.8 17.7 40 10.0 CALM 0 0 0 0 1003.6 1001.2 0.0
27/08:30pm 33.8 36.0 16.6 35 11.0 CALM 0 0 0 0 1003.0 1000.6 0.0
27/08:00pm 34.0 34.6 16.8 35 11.1 SSW 9 13 5 7 1003.0 1000.6 0.0
27/07:30pm 34.0 35.4 17.7 38 10.6 SSE 7 11 4 6 1002.9 1000.5 0.0
27/07:00pm 34.6 34.5 17.8 37 11.0 E 15 26 8 14 1002.7 1000.3 0.0
27/06:30pm 35.5 33.3 16.8 33 12.1 SE 24 37 13 20 1002.3 999.9 0.0
27/06:00pm 36.6 33.9 16.7 30 12.9 SSE 26 35 14 19 1001.6 999.3 0.0
27/05:30pm 38.6 37.5 16.3 27 14.5 ESE 17 26 9 14 1001.5 999.2 0.0
27/05:00pm 38.7 36.6 16.3 26 14.6 SE 22 30 12 16 1001.3 999.0 0.0
27/04:30pm 38.7 37.4 15.7 25 14.8 ESE 17 32 9 17 1001.4 999.1 0.0
27/04:00pm 40.0 40.7 16.2 24 15.5 SSE 7 15 4 8 1001.8 999.5 0.0
27/03:30pm 38.1 37.7 15.2 25 14.6 E 11 19 6 10 1002.3 999.9 0.0
27/03:00pm 39.0 39.5 16.6 27 14.6 SSE 9 19 5 10 1002.7 1000.3 0.0
27/02:30pm 37.9 38.3 16.2 27 14.0 ESE 9 17 5 9 1003.1 1000.7 0.0
27/02:00pm 37.8 37.6 16.7 29 13.8 S 13 20 7 11 1003.6 1001.2 0.0
27/01:30pm 37.3 37.7 17.3 30 13.1 SSE 11 20 6 11 1004.1 1001.7 0.0
27/01:00pm 35.9 36.8 16.6 31 12.5 WNW 7 11 4 6 1004.6 1002.3 0.0
27/12:30pm 35.1 35.5 16.4 32 12.0 NNE 9 17 5 9 1005.0 1002.7 0.0
27/12:00pm 34.9 36.2 17.6 35 11.3 S 7 17 4 9 1005.4 1003.1 0.0
27/11:30am 34.8 36.1 18.4 38 10.8 SE 9 15 5 8 1005.9 1003.5 0.0
27/11:00am 33.8 34.9 17.9 38 10.4 S 9 15 5 8 1006.1 1003.7 0.0
27/10:30am 33.1 35.1 19.2 43 9.2 SSE 7 15 4 8 1006.3 1003.9 0.0
27/10:00am 32.6 35.1 20.2 48 8.3 S 7 13 4 7 1006.6 1004.2 0.0
27/09:30am 31.0 34.0 20.9 55 6.8 SSW 6 9 3 5 1006.9 1004.5 0.0
27/09:00am 29.9 32.0 20.2 56 6.5 WSW 9 15 5 8 1006.9 1004.5 6.2
27/08:30am 29.4 32.4 20.0 57 6.2 W 4 9 2 5 1006.6 1004.2 6.0
27/08:00am 28.8 31.2 20.8 62 5.4 N 9 13 5 7 1006.5 1004.1 6.0
27/07:30am 28.1 31.4 21.4 67 4.5 N 6 9 3 5 1006.1 1003.7 6.0
27/07:00am 26.8 29.2 21.6 73 3.5 NE 11 17 6 9 1005.6 1003.3 6.0
27/06:30am 26.7 31.0 21.2 72 3.7 CALM 0 6 0 3 1004.7 1002.4 6.0
27/06:00am 26.0 28.2 21.2 75 3.2 S 11 13 6 7 1004.4 1002.1 5.8
27/05:30am 27.4 29.9 21.0 68 4.3 WSW 9 13 5 7 1004.0 1001.6 5.8
27/05:00am 27.4 29.1 21.0 68 4.3 WNW 13 17 7 9 1003.8 1001.4 5.8
27/04:30am 27.3 29.6 21.3 69 4.0 NW 11 13 6 7 1003.4 1001.0 5.8
27/04:00am 27.0 29.0 21.5 72 3.7 W 13 15 7 8 1003.5 1001.1 5.8
27/03:30am 26.8 29.4 22.0 75 3.3 WNW 11 15 6 8 1002.9 1000.5 5.8
27/03:00am 26.7 30.3 22.3 77 3.0 WSW 7 9 4 5 1002.8 1000.4 5.8
27/02:30am 26.7 30.2 21.9 75 3.2 NNW 6 9 3 5 1002.7 1000.3 5.8
27/02:00am 26.6 31.1 22.2 77 3.0 NNW 2 9 1 5 1002.9 1000.5 5.8
27/01:30am 26.5 30.1 22.1 77 3.0 N 6 7 3 4 1003.0 1000.6 5.8
27/01:00am 26.9 30.6 22.5 77 3.0 WNW 7 9 4 5 1003.1 1000.7 5.8
27/12:30am 26.7 30.3 23.0 80 2.5 NW 9 11 5 6 1003.3 1000.9 5.8
27/12:00am 26.4 29.8 22.7 80 2.5 WNW 9 11 5 6 1003.5 1001.1 5.8
 
Date/Time
EST
Temp
°C
App
Temp
°C
Dew
Point
°C
Rel
Hum
%
Delta-T
°C
Wind Press
QNH
hPa
Press
MSL
hPa
Rain since
9am
mm
Dir  Spd
km/h
Gust
km/h
Spd
kts
Gust
kts
26/11:30pm 25.6 29.3 22.3 82 2.2 N 6 7 3 4 1003.9 1001.5 5.8
26/11:00pm 25.4 28.9 21.9 81 2.4 N 6 11 3 6 1003.8 1001.4 5.8
26/10:30pm 25.4 28.2 21.5 79 2.6 N 9 15 5 8 1003.7 1001.3 5.8
26/10:00pm 25.1 26.8 21.6 81 2.4 NNE 15 20 8 11 1004.3 1002.0 5.6
26/09:30pm 26.9 27.2 20.5 68 4.2 NNE 19 24 10 13 1004.4 1002.1 5.0
26/09:00pm 28.7 27.9 19.3 56 6.2 ENE 22 32 12 17 1005.0 1002.7 5.0
26/08:30pm 28.6 26.3 18.4 54 6.6 ENE 28 44 15 24 1004.8 1002.5 5.0
26/08:00pm 29.8 28.7 19.5 54 6.8 NNE 24 35 13 19 1003.6 1001.2 5.0
26/07:30pm 31.0 30.8 19.7 51 7.5 NNE 20 30 11 16 1002.7 1000.3 5.0
26/07:00pm 32.1 33.4 19.4 47 8.5 N 11 19 6 10 1002.5 1000.1 5.0
26/06:30pm 32.6 33.8 19.1 44 8.9 N 11 20 6 11 1002.0 999.7 5.0
26/06:00pm 33.5 35.3 18.8 41 9.7 WNW 7 9 4 5 1001.3 999.0 5.0
26/05:30pm 33.0 34.6 19.1 43 9.2 NNW 9 11 5 6 1001.2 998.9 4.8
26/05:00pm 31.8 33.0 19.8 49 8.0 NW 13 17 7 9 1001.3 999.0 4.8
26/04:30pm 29.8 30.4 19.5 54 6.8 WNW 15 20 8 11 1001.2 998.9 4.8
26/04:00pm 30.1 29.8 19.2 52 7.2 W 19 26 10 14 1001.8 999.5 4.8
26/03:30pm 29.4 27.1 18.5 52 7.1 SW 28 37 15 20 1002.3 999.9 4.8
26/03:08pm 31.6 33.4 19.6 49 8.0 W 9 39 5 21 1002.4 1000.0 4.8
26/03:00pm 32.6 34.8 19.5 46 8.7 NNW 7 15 4 8 1001.9 999.6 4.8
26/02:30pm 30.9 33.4 22.5 61 5.8 N 13 19 7 10 1002.2 999.8 4.8
26/02:00pm 29.6 30.8 21.5 61 5.5 NNE 17 28 9 15 1002.7 1000.3 4.4
26/01:36pm 29.9 30.6 21.6 61 5.6 N 20 32 11 17 1002.9 1000.5 4.2
26/01:30pm 29.4 29.3 21.4 62 5.4 N 24 41 13 22 1003.0 1000.6 4.2
26/01:15pm 28.1 26.4 19.9 61 5.4 SE 28 48 15 26 1003.7 1001.3 2.6
26/01:10pm 31.0 30.6 18.0 45 8.4 SSE 17 48 9 26 1003.1 1000.7 0.0
26/01:00pm 36.7 36.3 15.2 27 13.7 SW 11 20 6 11 1003.0 1000.6 0.0
26/12:30pm 37.6 36.8 16.0 28 13.9 WSW 15 26 8 14 1003.5 1001.1 0.0
26/12:00pm 37.0 36.2 16.0 28 13.5 W 15 22 8 12 1004.1 1001.7 0.0
26/11:30am 36.6 35.8 16.2 29 13.1 W 15 28 8 15 1004.4 1002.1 0.0
26/11:00am 36.4 35.2 17.0 31 12.6 WNW 19 30 10 16 1004.8 1002.5 0.0
26/10:30am 35.2 34.0 16.0 31 12.3 NW 17 26 9 14 1005.0 1002.7 0.0
26/10:00am 35.2 33.8 16.5 33 12.1 WNW 19 28 10 15 1005.2 1002.9 0.0
26/09:30am 34.6 33.7 17.8 37 11.0 NNW 19 26 10 14 1005.2 1002.9 0.0
26/09:00am 33.5 32.4 17.2 37 10.6 NW 19 28 10 15 1005.2 1002.9 0.0
26/08:30am 33.1 32.6 17.7 40 10.0 NNW 17 26 9 14 1005.3 1003.0 0.0
26/08:00am 31.9 30.8 17.8 43 9.2 NW 20 28 11 15 1005.1 1002.8 0.0
26/07:30am 30.7 29.8 17.7 45 8.4 NNW 19 22 10 12 1004.9 1002.6 0.0
26/07:00am 30.0 30.3 17.8 48 7.9 NNW 13 17 7 9 1004.6 1002.3 0.0
26/06:30am 29.6 31.0 17.8 49 7.6 NNW 7 11 4 6 1004.5 1002.2 0.0
26/06:00am 29.8 30.2 17.3 47 8.0 NNW 11 17 6 9 1004.1 1001.7 0.0
26/05:30am 30.0 29.4 17.5 47 8.0 WNW 17 22 9 12 1003.5 1001.1 0.0
26/05:00am 30.1 29.9 17.5 46 8.1 NW 15 20 8 11 1003.1 1000.7 0.0
26/04:30am 30.1 29.9 17.5 46 8.1 NW 15 19 8 10 1003.1 1000.7 0.0
26/04:00am 29.9 29.7 17.7 48 7.9 NW 15 20 8 11 1002.9 1000.5 0.0
26/03:30am 29.5 30.2 17.0 47 8.0 NNW 9 15 5 8 1002.9 1000.5 0.0
26/03:00am 29.7 30.3 16.8 45 8.2 N 9 13 5 7 1003.2 1000.8 0.0
26/02:30am 30.0 30.7 17.1 46 8.2 NNW 9 15 5 8 1003.5 1001.1 0.0
26/02:00am 30.2 30.5 16.9 44 8.5 NNW 11 17 6 9 1003.7 1001.3 0.0
26/01:30am 30.4 30.2 16.8 44 8.7 N 13 19 7 10 1004.2 1001.8 0.0
26/01:00am 30.7 31.4 17.0 43 8.8 NNE 9 11 5 6 1004.5 1002.2 0.0
26/12:30am 30.8 32.2 16.4 42 9.1 NE 4 11 2 6 1004.9 1002.6 0.0
26/12:00am 31.5 32.1 15.9 39 9.9 N 7 11 4 6 1005.0 1002.7 0.0
 
Date/Time
EST
Temp
°C
App
Temp
°C
Dew
Point
°C
Rel
Hum
%
Delta-T
°C
Wind Press
QNH
hPa
Press
MSL
hPa
Rain since
9am
mm
Dir  Spd
km/h
Gust
km/h
Spd
kts
Gust
kts
25/11:30pm 32.0 31.3 15.5 37 10.4 NE 13 17 7 9 1005.2 1002.9 0.0
25/11:00pm 32.2 32.0 15.7 37 10.4 NNE 11 15 6 8 1005.2 1002.9 0.0
25/10:30pm 32.7 33.6 16.1 37 10.5 N 6 9 3 5 1005.1 1002.8 0.0
25/10:00pm 33.1 34.8 15.1 33 11.3 CALM 0 0 0 0 1004.9 1002.6 0.0
25/09:30pm 33.5 33.8 15.0 32 11.6 SSE 7 11 4 6 1004.3 1002.0 0.0
25/09:00pm 34.1 34.1 15.1 32 12.0 WNW 9 11 5 6 1003.6 1001.2 0.0
25/08:30pm 34.1 33.3 15.1 32 11.9 WSW 13 15 7 8 1003.2 1000.8 0.0
25/08:00pm 34.7 34.1 14.6 30 12.6 WSW 11 15 6 8 1003.1 1000.7 0.0
25/07:30pm 35.3 34.5 14.0 28 13.2 SSW 11 17 6 9 1002.9 1000.5 0.0
25/07:00pm 35.4 33.5 14.1 28 13.3 SW 17 22 9 12 1002.6 1000.2 0.0
25/06:30pm 35.6 33.7 14.3 28 13.3 SSW 17 20 9 11 1002.4 1000.0 0.0
25/06:00pm 36.5 35.1 14.5 27 13.9 SW 15 20 8 11 1002.4 1000.0 0.0
25/05:30pm 36.0 33.1 15.2 29 13.2 SW 24 30 13 16 1002.2 999.8 0.0
25/05:00pm 37.1 37.1 12.5 23 15.1 SSE 4 11 2 6 1002.2 999.8 0.0
25/04:30pm 37.2 36.5 13.3 24 14.8 SW 9 20 5 11 1002.4 1000.0 0.0
25/04:00pm 36.9 37.5 13.0 24 14.8 WNW 2 7 1 4 1002.8 1000.4 0.0

Other formats

Comma delimited format used in spreadsheet applications
http://www.bom.gov.au/fwo/IDQ60801/IDQ60801.94336.axf

JavaScript Object Notation format (JSON) in row-major order
http://www.bom.gov.au/fwo/IDQ60801/IDQ60801.94336.json

Data quality

Most of these data are generated automatically and are frequently updated. Quality checks on data are not normally performed. It is possible for incorrect values to appear. Refer to information at About Latest Weather Observations and please check the disclaimer before using these data.